Terminal Aerodrome Forecast
Issued by NWS Cleveland, OH

Home | Current Version | Previous Version | Text Only | Print | Product List | Glossary Off
Versions: 1 2 3 4 5 6 7 8 9 10 11 12 13 14 15 16 17 18

865
FTUS41 KCLE 212332
TAFCAK
TAF
KCAK 212332Z 2200/2224 13004KT P6SM -TSRA SCT035CB OVC090
      TEMPO 2201/2204 1SM +TSRA OVC012CB
     FM220400 00000KT 6SM -TSRA BR OVC035CB
     FM220600 00000KT 6SM -SHRA OVC035
      TEMPO 2206/2210 4SM -TSRA BR OVC040CB
     FM221000 17005KT P6SM OVC090
     FM221100 20004KT 6SM BR OVC250
     FM221200 22005KT 4SM BR OVC025
     FM221600 24009KT P6SM BKN040
     FM222300 30009KT P6SM BKN035=

USA.gov is the U.S. government's official web portal to all federal, state and local government web resources and services.